Time;durP1;ratioP1;P1;durP2;ratioP2;P2;SDS_P1;SDS_P2;PMS_P1;PMS_P2;Temp;Humidity;BMP_temperature;BMP_pressure;BME280_temperature;BME280_humidity;BME280_pressure;Samples;Min_cycle;Max_cycle;Signal;HPM_P1;HPM_P2
2023/03/13 00:01:30;;;;;;;6.25;2.85;;;8.80;80.10;;;;;;4976458;28;20034;-83
2023/03/13 00:03:55;;;;;;;5.82;2.70;;;8.80;80.10;;;;;;4994076;28;20034;-82
2023/03/13 00:06:24;;;;;;;5.63;2.78;;;8.80;80.20;;;;;;4976483;28;20033;-83
2023/03/13 00:08:49;;;;;;;6.60;2.92;;;8.80;80.20;;;;;;4976950;28;20058;-83
2023/03/13 00:11:15;;;;;;;5.97;2.65;;;8.80;80.20;;;;;;4993912;28;20062;-83
2023/03/13 00:13:42;;;;;;;6.07;2.75;;;8.80;80.20;;;;;;4992687;28;20500;-84
2023/03/13 00:16:13;;;;;;;5.53;2.60;;;8.80;80.20;;;;;;4976482;28;20026;-83
2023/03/13 00:18:43;;;;;;;5.15;2.60;;;8.80;80.20;;;;;;4976461;28;20029;-85
2023/03/13 00:21:08;;;;;;;6.43;2.80;;;8.80;80.20;;;;;;4976191;28;20408;-83
2023/03/13 00:23:36;;;;;;;5.53;2.60;;;8.80;80.20;;;;;;4975678;28;20035;-83
2023/03/13 00:26:08;;;;;;;6.57;2.80;;;8.80;80.20;;;;;;4993234;28;20058;-84
2023/03/13 00:28:35;;;;;;;;;;;8.80;80.20;;;;;;4976374;28;20030;-83
2023/03/13 00:31:08;;;;;;;6.25;2.38;;;8.80;80.20;;;;;;4975579;28;19906;-83
2023/03/13 00:33:39;;;;;;;4.65;2.30;;;8.80;80.30;;;;;;4992878;28;20031;-83
2023/03/13 00:36:11;;;;;;;6.55;2.78;;;8.70;80.20;;;;;;4993206;28;20078;-83
2023/03/13 00:38:37;;;;;;;7.35;2.70;;;8.80;80.20;;;;;;4975593;28;20023;-83
2023/03/13 00:41:10;;;;;;;5.82;2.55;;;8.80;80.30;;;;;;4978510;28;20053;-83
2023/03/13 00:43:36;;;;;;;5.43;2.60;;;8.80;80.30;;;;;;4979267;28;20029;-82
2023/03/13 00:46:02;;;;;;;5.25;2.28;;;8.80;80.30;;;;;;4979455;28;20476;-83
2023/03/13 00:48:27;;;;;;;6.30;2.65;;;8.90;80.40;;;;;;4996657;28;20057;-83
2023/03/13 00:50:53;;;;;;;7.60;2.67;;;8.80;80.30;;;;;;4978681;28;20485;-83
2023/03/13 00:53:19;;;;;;;6.15;2.75;;;8.80;80.40;;;;;;4996254;28;20044;-83
2023/03/13 00:55:56;;;;;;;8.07;3.47;;;8.80;80.30;;;;;;4995551;28;20018;-83
2023/03/13 00:58:23;;;;;;;7.50;3.13;;;8.80;80.30;;;;;;4979500;28;20019;-82
2023/03/13 01:00:49;;;;;;;7.28;2.72;;;8.80;80.40;;;;;;4979094;28;20050;-82
2023/03/13 01:03:15;;;;;;;7.03;2.63;;;8.80;80.30;;;;;;4979112;28;20053;-82
2023/03/13 01:05:40;;;;;;;5.15;2.33;;;8.80;80.40;;;;;;4995429;28;20062;-84
2023/03/13 01:08:06;;;;;;;5.13;2.35;;;8.80;80.40;;;;;;4995302;28;20019;-82
2023/03/13 01:10:31;;;;;;;5.85;2.50;;;8.80;80.40;;;;;;4994999;28;20077;-84
2023/03/13 01:12:57;;;;;;;5.65;2.10;;;8.80;80.40;;;;;;4996458;28;20052;-82
2023/03/13 01:15:23;;;;;;;6.10;2.25;;;8.80;80.40;;;;;;4996358;28;20477;-84
2023/03/13 01:17:48;;;;;;;5.55;2.70;;;8.80;80.40;;;;;;4994926;28;20027;-83
2023/03/13 01:20:14;;;;;;;7.15;2.47;;;8.80;80.50;;;;;;4995974;28;20098;-82
2023/03/13 01:22:39;;;;;;;6.68;2.50;;;8.80;80.50;;;;;;4996238;28;20038;-85
2023/03/13 01:25:05;;;;;;;6.07;2.38;;;8.80;80.50;;;;;;4995116;28;20026;-82
2023/03/13 01:27:31;;;;;;;5.40;2.35;;;8.80;80.50;;;;;;4978868;28;20030;-84
2023/03/13 01:29:56;;;;;;;6.47;2.50;;;8.80;80.50;;;;;;4995074;28;20030;-83
2023/03/13 01:32:22;;;;;;;5.35;2.00;;;8.80;80.50;;;;;;4978584;28;20026;-83
2023/03/13 01:34:47;;;;;;;5.68;2.33;;;8.80;80.50;;;;;;4978990;28;20028;-84
2023/03/13 01:37:13;;;;;;;6.03;2.50;;;8.80;80.50;;;;;;4978490;28;20022;-84
2023/03/13 01:39:39;;;;;;;5.78;2.10;;;8.80;80.50;;;;;;4978564;28;20022;-83
2023/03/13 01:42:05;;;;;;;6.35;2.42;;;8.80;80.50;;;;;;4978237;28;20065;-84
2023/03/13 01:44:55;;;;;;;5.20;2.03;;;8.80;80.50;;;;;;4995991;28;20062;-82
2023/03/13 01:47:21;;;;;;;4.78;2.00;;;8.80;80.50;;;;;;4978553;28;20105;-84
2023/03/13 01:49:47;;;;;;;4.72;2.25;;;8.80;80.50;;;;;;4978230;28;20022;-83
2023/03/13 01:52:17;;;;;;;6.03;2.20;;;8.80;80.50;;;;;;4977144;28;20069;-82
2023/03/13 01:55:06;;;;;;;6.15;2.20;;;8.80;80.50;;;;;;4977737;28;20038;-82
2023/03/13 01:57:39;;;;;;;5.32;2.45;;;8.80;80.50;;;;;;4995843;28;20026;-81
2023/03/13 02:00:07;;;;;;;4.55;2.00;;;8.80;80.50;;;;;;4978560;28;20023;-82
2023/03/13 02:02:34;;;;;;;6.15;2.20;;;8.80;80.50;;;;;;4994310;28;20023;-82
2023/03/13 02:05:04;;;;;;;6.07;2.00;;;8.80;80.50;;;;;;4978326;28;20065;-83
2023/03/13 02:07:52;;;;;;;6.32;2.47;;;8.80;80.60;;;;;;4978186;28;20061;-82
2023/03/13 02:10:18;;;;;;;5.00;2.10;;;8.80;80.50;;;;;;4993541;28;20038;-82
2023/03/13 02:12:44;;;;;;;7.35;2.38;;;8.80;80.50;;;;;;4978428;28;20030;-82
2023/03/13 02:15:15;;;;;;;4.88;2.05;;;8.80;80.50;;;;;;4978324;28;20110;-82
2023/03/13 02:17:41;;;;;;;5.20;1.83;;;8.80;80.50;;;;;;4995811;28;20057;-81
2023/03/13 02:20:07;;;;;;;4.50;1.95;;;8.80;80.50;;;;;;4995439;28;20122;-82
2023/03/13 02:23:09;;;;;;;5.90;2.22;;;8.80;80.50;;;;;;4977702;28;20031;-85
2023/03/13 02:25:43;;;;;;;5.65;2.25;;;8.80;80.50;;;;;;4977870;28;20030;-82
2023/03/13 02:28:14;;;;;;;3.92;1.67;;;8.80;80.50;;;;;;4978127;28;20028;-82
2023/03/13 02:30:42;;;;;;;4.82;1.75;;;8.80;80.50;;;;;;4978339;28;20066;-82
2023/03/13 02:33:10;;;;;;;5.00;2.08;;;8.80;80.60;;;;;;4977987;28;20030;-82
2023/03/13 02:35:36;;;;;;;4.50;1.92;;;8.80;80.60;;;;;;4978142;28;20118;-84
2023/03/13 02:38:05;;;;;;;5.03;2.00;;;8.80;80.60;;;;;;4977518;28;20076;-82
2023/03/13 02:40:35;;;;;;;4.55;2.03;;;8.80;80.60;;;;;;4977316;28;20494;-84
2023/03/13 02:43:09;;;;;;;6.22;2.20;;;8.80;80.60;;;;;;4977392;28;20507;-82
2023/03/13 02:45:35;;;;;;;4.68;2.00;;;8.80;80.60;;;;;;4995203;23;20050;-84
2023/03/13 02:48:00;;;;;;;4.43;2.08;;;8.80;80.60;;;;;;4981223;28;20105;-84
2023/03/13 02:50:26;;;;;;;4.93;1.98;;;8.80;80.60;;;;;;4977432;28;20022;-84
2023/03/13 02:52:57;;;;;;;5.43;2.00;;;8.80;80.60;;;;;;4978942;28;20507;-84
2023/03/13 02:55:28;;;;;;;5.40;2.25;;;8.80;80.60;;;;;;4982200;28;20023;-84
2023/03/13 02:57:53;;;;;;;5.28;2.08;;;8.80;80.60;;;;;;4998962;28;20064;-84
2023/03/13 03:00:20;;;;;;;5.10;1.70;;;8.80;80.60;;;;;;4998711;28;20480;-84
2023/03/13 03:02:46;;;;;;;5.80;2.05;;;8.80;80.70;;;;;;4999071;28;20054;-84
2023/03/13 03:05:12;;;;;;;5.03;1.98;;;8.80;80.70;;;;;;4998836;28;20488;-84
2023/03/13 03:07:38;;;;;;;5.07;1.92;;;8.80;80.70;;;;;;4981391;28;20023;-83
2023/03/13 03:10:04;;;;;;;4.68;1.75;;;8.80;81.20;;;;;;4998415;28;20030;-84
2023/03/13 03:12:30;;;;;;;4.43;1.92;;;8.80;80.70;;;;;;4998648;28;20032;-84
2023/03/13 03:14:55;;;;;;;5.30;2.10;;;8.80;80.70;;;;;;4981033;28;20397;-84
2023/03/13 03:17:21;;;;;;;4.05;1.80;;;8.80;81.30;;;;;;4998263;28;20092;-84
2023/03/13 03:19:46;;;;;;;4.75;1.88;;;8.90;80.80;;;;;;4998479;28;20479;-84
2023/03/13 03:22:12;;;;;;;4.93;1.80;;;8.80;80.70;;;;;;4980060;28;20053;-84
2023/03/13 03:24:37;;;;;;;4.82;1.80;;;8.80;80.80;;;;;;4979080;28;20117;-84
2023/03/13 03:27:03;;;;;;;5.43;1.80;;;8.80;80.80;;;;;;4979730;28;20022;-84
2023/03/13 03:29:28;;;;;;;5.35;1.88;;;8.80;80.80;;;;;;4979323;28;20084;-84
2023/03/13 03:31:54;;;;;;;5.50;2.08;;;8.80;80.90;;;;;;4996402;28;20027;-84
2023/03/13 03:34:19;;;;;;;5.35;1.55;;;8.90;80.90;;;;;;4978429;28;20473;-84
2023/03/13 03:36:45;;;;;;;4.03;1.52;;;8.90;80.90;;;;;;4994156;28;20484;-84
2023/03/13 03:39:10;;;;;;;5.65;2.03;;;8.90;81.00;;;;;;5004875;28;20033;-84
2023/03/13 03:41:36;;;;;;;6.75;2.13;;;8.80;80.90;;;;;;5007972;28;20057;-84
2023/03/13 03:44:02;;;;;;;4.25;1.50;;;8.90;80.90;;;;;;4994871;28;20503;-84
2023/03/13 03:46:27;;;;;;;5.35;1.60;;;8.80;80.90;;;;;;4995015;28;20052;-84
2023/03/13 03:48:53;;;;;;;4.72;1.70;;;8.80;81.00;;;;;;5012926;28;20029;-84
2023/03/13 03:51:19;;;;;;;5.43;1.70;;;8.80;81.00;;;;;;5012716;28;20026;-84
2023/03/13 03:53:45;;;;;;;3.53;1.40;;;8.90;81.00;;;;;;5012178;28;20037;-84
2023/03/13 03:56:10;;;;;;;3.97;1.60;;;8.90;81.10;;;;;;5014059;28;20026;-84
2023/03/13 03:58:36;;;;;;;4.38;1.50;;;8.80;81.00;;;;;;5014648;28;20721;-83
2023/03/13 04:01:01;;;;;;;4.25;1.60;;;8.90;81.10;;;;;;5011410;28;20049;-83
2023/03/13 04:03:27;;;;;;;5.13;1.83;;;8.80;81.00;;;;;;5013579;28;20073;-83
2023/03/13 04:05:52;;;;;;;5.72;1.80;;;8.90;81.10;;;;;;4995641;28;20105;-83
2023/03/13 04:08:18;;;;;;;4.47;1.52;;;8.90;81.10;;;;;;5012871;28;20022;-84
2023/03/13 04:10:43;;;;;;;5.00;1.67;;;8.90;81.10;;;;;;4995198;28;20025;-83
2023/03/13 04:13:09;;;;;;;4.53;1.60;;;8.90;81.10;;;;;;4995387;28;20108;-83
2023/03/13 04:15:36;;;;;;;4.70;1.40;;;8.90;81.20;;;;;;4998339;28;20109;-84
2023/03/13 04:18:02;;;;;;;3.85;1.60;;;8.90;81.20;;;;;;4999219;28;20022;-84
2023/03/13 04:20:27;;;;;;;5.00;1.65;;;8.90;81.20;;;;;;5017126;28;20026;-84
2023/03/13 04:22:53;;;;;;;4.03;1.60;;;8.80;81.00;;;;;;5015226;28;20559;-79
2023/03/13 04:25:19;;;;;;;4.10;1.48;;;8.90;81.30;;;;;;5012401;28;20033;-81
2023/03/13 04:27:44;;;;;;;5.65;1.50;;;8.90;81.30;;;;;;4987858;28;20034;-83
2023/03/13 04:30:10;;;;;;;4.28;1.80;;;8.90;81.20;;;;;;5007844;28;20030;-82
2023/03/13 04:32:36;;;;;;;4.13;1.50;;;8.90;81.30;;;;;;4978279;28;20122;-84
2023/03/13 04:35:02;;;;;;;4.53;1.58;;;8.90;81.30;;;;;;4996205;28;20462;-81
2023/03/13 04:37:27;;;;;;;5.43;1.52;;;8.90;81.30;;;;;;5010896;28;20037;-80
2023/03/13 04:39:52;;;;;;;4.40;1.50;;;8.90;81.30;;;;;;5011202;28;20484;-80
2023/03/13 04:42:18;;;;;;;5.10;1.63;;;8.90;81.30;;;;;;5010846;28;20034;-80
2023/03/13 04:44:43;;;;;;;4.50;1.55;;;8.90;81.30;;;;;;4994323;28;20125;-81
2023/03/13 04:47:09;;;;;;;4.03;1.30;;;8.90;81.40;;;;;;5010985;28;20038;-82
2023/03/13 04:49:34;;;;;;;4.93;1.50;;;8.90;81.30;;;;;;5011524;28;20408;-81
2023/03/13 04:52:00;;;;;;;5.63;1.45;;;8.90;81.40;;;;;;4974948;28;20130;-81
2023/03/13 04:54:26;;;;;;;4.38;1.67;;;8.90;81.40;;;;;;5008183;28;20113;-85
2023/03/13 04:56:51;;;;;;;3.75;1.20;;;8.90;81.40;;;;;;4993248;28;20532;-86
2023/03/13 04:59:17;;;;;;;3.33;1.40;;;8.90;81.40;;;;;;5007646;28;20034;-83
2023/03/13 05:01:42;;;;;;;4.55;1.45;;;8.90;81.50;;;;;;5008228;28;20037;-83
2023/03/13 05:04:09;;;;;;;3.70;1.45;;;8.80;81.50;;;;;;5007775;28;20069;-82
2023/03/13 05:06:34;;;;;;;4.68;1.50;;;8.90;81.60;;;;;;5001540;28;20026;-84
2023/03/13 05:09:00;;;;;;;3.92;1.40;;;8.90;81.50;;;;;;4999684;28;20085;-85
2023/03/13 05:11:26;;;;;;;3.70;1.40;;;8.80;81.50;;;;;;4997808;28;20030;-83
2023/03/13 05:13:51;;;;;;;3.50;1.58;;;8.90;81.60;;;;;;5013709;28;20026;-84
2023/03/13 05:16:17;;;;;;;5.55;1.60;;;8.90;81.60;;;;;;4980803;28;20030;-83
2023/03/13 05:18:42;;;;;;;3.60;1.40;;;8.90;81.50;;;;;;5013753;28;20030;-84
2023/03/13 05:21:08;;;;;;;5.25;1.67;;;8.90;81.60;;;;;;5012324;28;20050;-85
2023/03/13 05:23:34;;;;;;;4.05;1.35;;;8.90;81.60;;;;;;5012739;28;20090;-85
2023/03/13 05:25:59;;;;;;;4.50;1.50;;;8.80;81.60;;;;;;4996284;28;20202;-84
2023/03/13 05:28:25;;;;;;;3.13;1.40;;;8.90;81.70;;;;;;4997789;28;20034;-84
2023/03/13 05:30:51;;;;;;;3.80;1.38;;;8.90;81.60;;;;;;4979732;28;20030;-85
2023/03/13 05:33:18;;;;;;;4.70;1.50;;;8.90;81.70;;;;;;4979607;28;20044;-84
2023/03/13 05:35:44;;;;;;;4.65;1.42;;;8.90;81.70;;;;;;5005532;28;20023;-84
2023/03/13 05:38:10;;;;;;;4.88;1.63;;;9.40;82.00;;;;;;4982370;28;20496;-83
2023/03/13 05:40:35;;;;;;;3.17;1.25;;;8.90;81.70;;;;;;4957057;28;20058;-83
2023/03/13 05:43:01;;;;;;;3.60;1.50;;;8.90;81.70;;;;;;4959247;28;20033;-84
2023/03/13 05:45:26;;;;;;;3.97;1.52;;;8.90;81.70;;;;;;4959581;28;20396;-83
2023/03/13 05:47:52;;;;;;;4.50;1.48;;;8.90;81.80;;;;;;4956529;28;20027;-84
2023/03/13 05:50:17;;;;;;;3.00;1.33;;;8.90;81.80;;;;;;4960095;28;20084;-85
2023/03/13 05:52:43;;;;;;;4.03;1.50;;;8.90;81.60;;;;;;4984858;28;20057;-84
2023/03/13 05:55:08;;;;;;;4.82;1.77;;;8.90;81.90;;;;;;5002493;28;20026;-84
2023/03/13 05:57:34;;;;;;;5.65;1.85;;;8.90;81.90;;;;;;5000499;28;20034;-84
2023/03/13 06:00:00;;;;;;;6.35;2.90;;;8.90;82.00;;;;;;4999724;28;20018;-83
2023/03/13 06:02:25;;;;;;;7.85;3.25;;;8.90;82.00;;;;;;4998868;28;20037;-84
2023/03/13 06:04:51;;;;;;;7.47;3.33;;;8.90;81.90;;;;;;5015066;28;20080;-84
2023/03/13 06:07:16;;;;;;;8.38;4.63;;;8.90;82.00;;;;;;4998556;28;20064;-85
2023/03/13 06:09:42;;;;;;;8.38;4.93;;;8.90;82.00;;;;;;4999157;28;20047;-83
2023/03/13 06:12:09;;;;;;;9.48;5.30;;;8.90;82.10;;;;;;4998189;28;20025;-84
2023/03/13 06:14:35;;;;;;;12.40;7.07;;;8.90;82.10;;;;;;4999378;28;20134;-84
2023/03/13 06:17:00;;;;;;;13.38;8.23;;;9.00;82.10;;;;;;4998730;28;20054;-84
2023/03/13 06:19:26;;;;;;;12.38;7.70;;;8.90;82.10;;;;;;4997727;28;20168;-83
2023/03/13 06:21:51;;;;;;;12.98;8.15;;;8.90;82.10;;;;;;4997040;28;20045;-83
2023/03/13 06:24:17;;;;;;;12.73;8.25;;;8.90;82.10;;;;;;4997312;28;20109;-83
2023/03/13 06:26:43;;;;;;;13.30;8.13;;;8.90;82.30;;;;;;4997644;28;20052;-85
2023/03/13 06:29:10;;;;;;;14.60;9.00;;;8.90;82.40;;;;;;4996608;28;20117;-81
2023/03/13 06:31:35;;;;;;;12.80;8.73;;;8.90;82.30;;;;;;4997368;28;20418;-85
2023/03/13 06:34:01;;;;;;;14.93;9.18;;;8.90;82.40;;;;;;4996530;28;20029;-81
2023/03/13 06:36:26;;;;;;;14.20;9.52;;;8.90;82.30;;;;;;4994772;28;20025;-82
2023/03/13 06:38:52;;;;;;;13.95;9.32;;;8.90;82.40;;;;;;4995124;28;20036;-86
2023/03/13 06:41:17;;;;;;;14.70;10.23;;;8.90;82.50;;;;;;4995189;28;20089;-85
2023/03/13 06:43:43;;;;;;;14.63;10.00;;;8.90;82.50;;;;;;5011697;28;20030;-84
2023/03/13 06:46:16;;;;;;;14.75;10.15;;;8.90;82.50;;;;;;5012660;28;20069;-84
2023/03/13 06:48:43;;;;;;;21.17;12.25;;;8.90;82.70;;;;;;5015805;28;20037;-87
2023/03/13 06:51:16;;;;;;;22.17;12.25;;;8.90;83.10;;;;;;5015500;28;20026;-86
2023/03/13 06:53:42;;;;;;;21.63;12.07;;;8.90;83.10;;;;;;5017039;28;20026;-86
2023/03/13 06:56:08;;;;;;;19.92;12.10;;;9.00;83.20;;;;;;5016888;28;20479;-86
2023/03/13 06:58:34;;;;;;;20.77;11.90;;;9.00;83.20;;;;;;5017936;28;20026;-86
2023/03/13 07:01:06;;;;;;;18.80;12.32;;;9.00;83.10;;;;;;4992857;28;20025;-86
2023/03/13 07:03:32;;;;;;;17.15;10.65;;;8.90;82.90;;;;;;4979330;28;20023;-86
2023/03/13 07:05:58;;;;;;;18.00;11.80;;;8.90;82.90;;;;;;4978569;28;20030;-86
2023/03/13 07:08:24;;;;;;;16.90;11.93;;;8.90;83.00;;;;;;4996237;28;20049;-86
2023/03/13 07:10:51;;;;;;;16.58;11.05;;;9.00;83.00;;;;;;4975847;28;20392;-87
2023/03/13 07:13:18;;;;;;;16.90;11.18;;;9.00;83.00;;;;;;4976247;28;20106;-87
2023/03/13 07:15:44;;;;;;;15.63;10.45;;;8.90;82.90;;;;;;4976229;28;20117;-86
2023/03/13 07:18:10;;;;;;;15.18;10.32;;;9.00;83.00;;;;;;4977877;28;20456;-86
2023/03/13 07:20:35;;;;;;;15.50;10.10;;;9.00;83.10;;;;;;4995596;28;20019;-86
2023/03/13 07:23:00;;;;;;;14.95;9.75;;;9.00;83.00;;;;;;4995460;28;20100;-86
2023/03/13 07:25:26;;;;;;;13.82;9.23;;;8.90;82.90;;;;;;4977973;28;20034;-86
2023/03/13 07:27:52;;;;;;;13.52;9.13;;;9.00;83.00;;;;;;4975682;28;20539;-86
2023/03/13 07:30:18;;;;;;;13.40;8.73;;;9.00;83.00;;;;;;4992900;28;20030;-86
2023/03/13 07:32:44;;;;;;;13.35;9.00;;;8.90;82.90;;;;;;4993362;28;20038;-86
2023/03/13 07:35:09;;;;;;;14.77;8.43;;;8.90;82.90;;;;;;4975393;28;20026;-86
2023/03/13 07:37:34;;;;;;;14.90;9.05;;;9.00;83.00;;;;;;4992966;28;20026;-87
2023/03/13 07:40:00;;;;;;;11.95;8.65;;;9.00;83.00;;;;;;4975098;28;20090;-86
2023/03/13 07:42:25;;;;;;;13.90;8.35;;;9.00;83.10;;;;;;4991511;28;20035;-86
2023/03/13 07:44:52;;;;;;;13.18;8.20;;;9.00;83.10;;;;;;4975806;28;20030;-86
2023/03/13 07:47:18;;;;;;;13.80;8.75;;;8.90;83.10;;;;;;4974251;28;20037;-87
2023/03/13 07:49:45;;;;;;;12.25;8.32;;;8.90;83.10;;;;;;4974833;28;20030;-86
2023/03/13 07:52:10;;;;;;;12.65;7.85;;;9.00;83.10;;;;;;4974146;28;20480;-87
2023/03/13 07:54:36;;;;;;;12.65;7.93;;;9.00;83.10;;;;;;4992568;28;20082;-86
2023/03/13 07:57:02;;;;;;;11.20;7.47;;;9.00;83.20;;;;;;4975262;28;20026;-86
2023/03/13 07:59:28;;;;;;;12.23;7.57;;;9.00;83.30;;;;;;4975115;28;20033;-86
2023/03/13 08:01:53;;;;;;;11.68;7.57;;;9.00;83.30;;;;;;4992711;28;20026;-86
2023/03/13 08:04:19;;;;;;;12.23;7.47;;;9.00;83.20;;;;;;4975279;28;20109;-86
2023/03/13 08:06:44;;;;;;;11.50;7.50;;;9.00;83.40;;;;;;4975055;28;20451;-86
2023/03/13 08:09:10;;;;;;;12.60;7.60;;;9.00;83.30;;;;;;4992972;28;20030;-86
2023/03/13 08:11:39;;;;;;;12.15;8.05;;;9.00;83.30;;;;;;4975286;28;20026;-86
2023/03/13 08:14:04;;;;;;;11.70;7.85;;;9.00;83.20;;;;;;4975356;28;20050;-86
2023/03/13 08:16:33;;;;;;;12.30;8.10;;;9.00;83.20;;;;;;4975756;28;20104;-86
2023/03/13 08:18:59;;;;;;;12.40;8.13;;;9.00;83.20;;;;;;4975271;28;20018;-86
2023/03/13 08:21:30;;;;;;;12.73;8.43;;;9.00;83.30;;;;;;4976433;28;20416;-86
2023/03/13 08:23:58;;;;;;;14.82;10.13;;;9.00;83.30;;;;;;5001769;28;20393;-87
2023/03/13 08:26:28;;;;;;;15.70;9.82;;;9.00;83.30;;;;;;4984003;28;20121;-87
2023/03/13 08:29:03;;;;;;;14.02;10.07;;;9.00;83.40;;;;;;4984458;28;20018;-87
2023/03/13 08:31:34;;;;;;;15.73;10.48;;;9.00;83.40;;;;;;5001041;28;20034;-86
2023/03/13 08:34:00;;;;;;;15.50;10.35;;;9.00;83.30;;;;;;4982994;28;20045;-87
2023/03/13 08:36:35;;;;;;;16.60;10.82;;;9.00;83.30;;;;;;4983444;28;20030;-86
2023/03/13 08:39:04;;;;;;;14.98;9.88;;;9.10;83.40;;;;;;4983170;28;20026;-87
2023/03/13 08:41:34;;;;;;;15.25;10.20;;;9.10;83.50;;;;;;4982539;28;20057;-86
2023/03/13 08:44:00;;;;;;;14.90;10.00;;;9.10;83.40;;;;;;4982254;28;20027;-87
2023/03/13 08:46:29;;;;;;;15.40;9.95;;;9.00;83.40;;;;;;4982172;28;20511;-86
2023/03/13 08:48:54;;;;;;;14.57;9.68;;;9.10;83.40;;;;;;4981341;28;20436;-86
2023/03/13 08:51:23;;;;;;;14.55;10.13;;;9.10;83.50;;;;;;4998532;28;20018;-85
2023/03/13 08:53:49;;;;;;;14.85;9.82;;;9.10;83.40;;;;;;4980455;28;20023;-84
2023/03/13 08:56:17;;;;;;;13.30;9.10;;;9.10;84.00;;;;;;4998546;28;20026;-86
2023/03/13 08:58:43;;;;;;;14.68;9.40;;;9.10;83.50;;;;;;4999126;28;20026;-85
2023/03/13 09:01:13;;;;;;;14.57;8.88;;;9.10;83.50;;;;;;4999913;28;20080;-84
2023/03/13 09:03:40;;;;;;;14.00;9.20;;;9.10;83.40;;;;;;4983341;28;20055;-86
2023/03/13 09:06:07;;;;;;;12.77;9.07;;;9.10;83.60;;;;;;5000813;28;20019;-85
2023/03/13 09:08:33;;;;;;;13.77;9.57;;;9.10;83.50;;;;;;4982967;28;20424;-85
2023/03/13 09:11:01;;;;;;;13.85;9.10;;;9.10;83.70;;;;;;4987024;28;20403;-86
2023/03/13 09:13:28;;;;;;;14.02;8.65;;;9.10;83.60;;;;;;4987286;28;20023;-85
2023/03/13 09:15:59;;;;;;;13.55;8.75;;;9.10;83.60;;;;;;5005415;28;20481;-85
2023/03/13 09:18:25;;;;;;;14.15;9.38;;;9.10;83.60;;;;;;5005068;28;20138;-86
2023/03/13 09:20:51;;;;;;;13.35;9.00;;;9.10;83.50;;;;;;4982667;28;20034;-85
2023/03/13 09:23:18;;;;;;;13.23;8.60;;;9.10;83.50;;;;;;4979802;28;20117;-85
2023/03/13 09:25:43;;;;;;;12.35;8.55;;;9.10;83.50;;;;;;5004083;28;20026;-86
2023/03/13 09:28:09;;;;;;;13.23;9.13;;;9.10;83.50;;;;;;5003500;28;20538;-85
2023/03/13 09:30:34;;;;;;;13.85;9.07;;;9.10;83.50;;;;;;4985738;28;20029;-86
2023/03/13 09:33:00;;;;;;;11.57;7.95;;;9.10;83.60;;;;;;5002847;28;20580;-86
2023/03/13 09:35:25;;;;;;;14.10;8.60;;;9.10;83.50;;;;;;5002193;28;20477;-85
2023/03/13 09:37:51;;;;;;;12.30;8.20;;;9.10;83.50;;;;;;5002085;28;20018;-85
2023/03/13 09:40:20;;;;;;;12.30;8.50;;;9.10;83.50;;;;;;4984099;28;20374;-86
2023/03/13 09:42:51;;;;;;;12.35;8.52;;;9.10;83.50;;;;;;4984220;28;20038;-85
2023/03/13 09:45:38;;;;;;;12.40;8.15;;;9.10;83.50;;;;;;4983770;28;20041;-86
2023/03/13 09:48:41;;;;;;;11.77;7.55;;;9.10;83.60;;;;;;5000967;28;20165;-85
2023/03/13 09:51:16;;;;;;;11.90;8.00;;;9.10;83.50;;;;;;4982106;28;20037;-85
2023/03/13 09:53:50;;;;;;;11.13;7.55;;;9.20;83.70;;;;;;4976952;28;20117;-85
2023/03/13 09:56:21;;;;;;;12.35;8.10;;;9.10;83.50;;;;;;4982024;28;20026;-84
2023/03/13 09:59:11;;;;;;;12.23;7.80;;;9.20;83.50;;;;;;4981985;28;20027;-86
2023/03/13 10:01:38;;;;;;;10.55;6.97;;;9.20;83.40;;;;;;4941437;28;20112;-84
2023/03/13 10:04:18;;;;;;;11.60;7.18;;;9.30;83.40;;;;;;4999049;28;20392;-85
2023/03/13 10:06:46;;;;;;;11.40;7.63;;;9.30;83.80;;;;;;4980828;28;20547;-84
2023/03/13 10:09:22;;;;;;;11.43;7.38;;;9.50;83.20;;;;;;4980966;28;20062;-85
2023/03/13 10:12:05;;;;;;;10.90;7.60;;;9.60;82.50;;;;;;4978680;28;20504;-85
2023/03/13 10:14:51;;;;;;;12.75;7.85;;;9.70;83.00;;;;;;4976864;28;20022;-85
2023/03/13 10:17:38;;;;;;;10.85;7.50;;;9.70;82.60;;;;;;4978999;28;20038;-86
2023/03/13 10:20:18;;;;;;;11.80;7.53;;;9.80;82.40;;;;;;4979452;28;20026;-83
2023/03/13 10:22:47;;;;;;;11.82;6.85;;;9.70;81.90;;;;;;4978295;28;20447;-85
2023/03/13 10:25:32;;;;;;;10.73;7.20;;;9.80;81.60;;;;;;4977071;28;20031;-85
2023/03/13 10:27:58;;;;;;;11.05;6.72;;;9.80;81.70;;;;;;4979041;28;20506;-86
2023/03/13 10:30:35;;;;;;;10.50;6.72;;;9.80;81.60;;;;;;4978629;28;20493;-85
2023/03/13 10:33:17;;;;;;;10.25;6.90;;;9.80;81.90;;;;;;4978809;28;20024;-85
2023/03/13 10:35:43;;;;;;;11.38;6.70;;;9.80;81.90;;;;;;4978572;28;20480;-85
2023/03/13 10:38:20;;;;;;;11.13;6.75;;;9.80;82.10;;;;;;4993784;28;20088;-84
2023/03/13 10:40:59;;;;;;;10.38;6.22;;;9.80;82.20;;;;;;4976789;28;20026;-84
2023/03/13 10:43:27;;;;;;;10.38;6.40;;;9.80;82.10;;;;;;4976360;28;20037;-84
2023/03/13 10:45:52;;;;;;;10.35;6.20;;;9.70;82.30;;;;;;4976186;28;20504;-85
2023/03/13 10:48:24;;;;;;;11.55;6.80;;;9.70;83.00;;;;;;4977876;28;20035;-84
2023/03/13 10:50:51;;;;;;;;;;;9.70;82.70;;;;;;4977798;28;20034;-85
2023/03/13 10:53:37;;;;;;;9.98;6.20;;;9.70;82.70;;;;;;4977448;28;19960;-84
2023/03/13 10:56:03;;;;;;;10.50;6.00;;;9.70;82.80;;;;;;4976217;28;20026;-85
2023/03/13 10:58:39;;;;;;;10.38;6.28;;;9.70;82.90;;;;;;4976300;28;20551;-85
2023/03/13 11:01:25;;;;;;;9.35;5.72;;;9.80;83.80;;;;;;4976190;28;20018;-84
2023/03/13 11:03:53;;;;;;;9.35;5.90;;;9.90;83.30;;;;;;4993477;28;20026;-85
2023/03/13 11:06:28;;;;;;;9.73;5.72;;;9.90;83.40;;;;;;4975766;28;20488;-85
2023/03/13 11:09:08;;;;;;;8.63;5.55;;;9.90;82.40;;;;;;4993385;28;20090;-85
2023/03/13 11:12:01;;;;;;;9.30;5.45;;;9.90;82.30;;;;;;4975571;28;20574;-85
2023/03/13 11:14:26;;;;;;;9.57;5.68;;;9.90;82.90;;;;;;4975852;28;20082;-85
2023/03/13 11:17:17;;;;;;;9.98;5.80;;;10.00;83.20;;;;;;4977677;28;20023;-84
2023/03/13 11:19:51;;;;;;;;;;;10.10;83.00;;;;;;4994211;28;20030;-83
2023/03/13 11:22:32;;;;;;;8.98;5.28;;;10.10;83.00;;;;;;4975918;28;19916;-83
2023/03/13 11:25:16;;;;;;;10.27;5.38;;;10.10;82.90;;;;;;4975684;28;20081;-82
2023/03/13 11:27:52;;;;;;;9.27;5.57;;;10.10;81.90;;;;;;4993953;28;20018;-83
2023/03/13 11:30:21;;;;;;;11.25;5.57;;;10.10;81.90;;;;;;4975926;28;20026;-83
2023/03/13 11:32:59;;;;;;;14.55;6.55;;;10.10;82.40;;;;;;4976293;28;20027;-83
2023/03/13 11:35:43;;;;;;;14.60;6.53;;;10.10;82.30;;;;;;4976060;28;20029;-83
2023/03/13 11:38:19;;;;;;;13.43;7.40;;;10.00;82.50;;;;;;4993840;28;20034;-83
2023/03/13 11:41:11;;;;;;;14.43;7.30;;;10.00;82.70;;;;;;4975953;28;20030;-84
2023/03/13 11:43:56;;;;;;;11.13;6.80;;;10.00;83.00;;;;;;4976908;28;20189;-84
2023/03/13 11:46:44;;;;;;;10.63;6.55;;;10.00;83.00;;;;;;4981128;28;20033;-84
2023/03/13 11:49:34;;;;;;;10.10;6.00;;;9.90;82.90;;;;;;4981252;28;20019;-83
2023/03/13 11:52:12;;;;;;;;;;;9.90;83.10;;;;;;4981952;28;20034;-83
2023/03/13 11:55:02;;;;;;;10.27;6.15;;;9.90;83.10;;;;;;4980545;28;19906;-84
2023/03/13 11:57:58;;;;;;;10.75;6.80;;;9.90;83.30;;;;;;4980732;28;20026;-83
2023/03/13 12:00:32;;;;;;;10.52;6.38;;;10.00;84.10;;;;;;4963185;28;20539;-81
2023/03/13 12:03:43;;;;;;;9.40;6.03;;;9.90;83.70;;;;;;4998292;28;20035;-82
2023/03/13 12:06:23;;;;;;;9.40;5.80;;;10.00;83.70;;;;;;4902708;29;20032;-83
2023/03/13 12:08:56;;;;;;;11.30;5.70;;;10.00;83.30;;;;;;4918076;29;20032;-82
2023/03/13 12:11:31;;;;;;;9.70;5.45;;;10.00;83.30;;;;;;4940280;28;20042;-83
2023/03/13 12:14:08;;;;;;;8.68;5.30;;;10.00;83.60;;;;;;4994149;28;20023;-82
2023/03/13 12:16:40;;;;;;;8.43;5.20;;;10.00;83.30;;;;;;4996468;28;20023;-80
2023/03/13 12:19:08;;;;;;;;;;;10.00;83.20;;;;;;4980050;28;20031;-80
2023/03/13 12:21:49;;;;;;;8.80;5.18;;;10.00;83.10;;;;;;4995724;28;20060;-81
2023/03/13 12:24:59;;;;;;;9.77;4.63;;;10.00;83.20;;;;;;4996657;28;20022;-80
2023/03/13 12:27:32;;;;;;;7.97;4.63;;;9.90;83.20;;;;;;4966057;28;20065;-82
2023/03/13 12:30:17;;;;;;;8.23;4.63;;;9.90;83.60;;;;;;4997209;28;20511;-82
2023/03/13 12:33:09;;;;;;;8.02;3.88;;;10.00;83.90;;;;;;4996422;28;20144;-83
2023/03/13 12:35:36;;;;;;;8.73;4.60;;;10.00;83.40;;;;;;4984266;28;20049;-83
2023/03/13 12:38:15;;;;;;;7.53;4.25;;;10.00;83.90;;;;;;5003788;28;20119;-82
2023/03/13 12:41:07;;;;;;;13.88;4.35;;;10.00;83.40;;;;;;4985791;28;20049;-82
2023/03/13 12:43:35;;;;;;;7.70;3.90;;;10.00;83.30;;;;;;5003376;28;20023;-80
2023/03/13 12:46:16;;;;;;;7.88;3.80;;;10.00;83.30;;;;;;5002854;28;20527;-82
2023/03/13 12:49:19;;;;;;;6.53;3.50;;;10.00;83.30;;;;;;5003209;28;20040;-82
2023/03/13 12:51:56;;;;;;;6.43;3.50;;;10.00;83.30;;;;;;5002333;28;20110;-80
2023/03/13 12:54:42;;;;;;;7.35;3.63;;;10.00;83.50;;;;;;4984504;28;20045;-81
2023/03/13 12:57:20;;;;;;;7.13;3.50;;;9.90;83.70;;;;;;5002843;28;20050;-82
2023/03/13 13:00:04;;;;;;;6.28;3.58;;;9.90;83.50;;;;;;4983537;28;20492;-82
2023/03/13 13:02:30;;;;;;;5.07;2.80;;;10.00;83.80;;;;;;4964787;28;20038;-81
2023/03/13 13:04:59;;;;;;;5.50;3.00;;;9.90;83.70;;;;;;4965362;28;20105;-80
2023/03/13 13:07:30;;;;;;;5.70;3.00;;;9.90;83.70;;;;;;4981916;28;20113;-82